Time;durP1;ratioP1;P1;durP2;ratioP2;P2;SDS_P1;SDS_P2;PMS_P1;PMS_P2;Temp;Humidity;BMP_temperature;BMP_pressure;BME280_temperature;BME280_humidity;BME280_pressure;Samples;Min_cycle;Max_cycle;Signal;HPM_P1;HPM_P2
2023/06/20 05:34:08;;;;;;;16.92;12.80;;;23.50;78.20;;;;;;5535077;23;20794;-81
2023/06/20 05:36:34;;;;;;;15.40;12.82;;;23.60;77.30;;;;;;4825575;29;20124;-81
2023/06/20 05:38:59;;;;;;;15.30;12.60;;;23.70;77.50;;;;;;4827742;29;20146;-81
2023/06/20 05:41:25;;;;;;;16.03;11.90;;;23.70;77.80;;;;;;4831367;29;20030;-81
2023/06/20 05:43:52;;;;;;;21.77;13.33;;;23.70;76.00;;;;;;4827361;29;20029;-83
2023/06/20 05:46:18;;;;;;;13.27;11.40;;;23.80;76.30;;;;;;4836465;29;20263;-83
2023/06/20 05:48:43;;;;;;;15.07;12.90;;;23.90;76.00;;;;;;4809477;29;20284;-82
2023/06/20 05:51:15;;;;;;;15.37;12.90;;;24.00;75.90;;;;;;4825262;29;20034;-82
2023/06/20 05:53:41;;;;;;;16.55;11.95;;;24.10;75.40;;;;;;4810343;29;20039;-83
2023/06/20 05:56:11;;;;;;;19.33;11.48;;;24.10;75.10;;;;;;4826666;29;20030;-82
2023/06/20 05:58:37;;;;;;;17.70;12.32;;;24.20;75.00;;;;;;4808877;29;20062;-81
2023/06/20 06:01:04;;;;;;;13.63;11.10;;;24.20;74.90;;;;;;4808948;29;20036;-84
2023/06/20 06:03:32;;;;;;;;;;;24.20;74.00;;;;;;4794357;29;20681;-85
2023/06/20 06:05:58;;;;;;;16.58;10.73;;;24.20;73.30;;;;;;4808950;29;19916;-82
2023/06/20 06:08:23;;;;;;;14.97;12.00;;;24.20;73.60;;;;;;4808914;29;20105;-84
2023/06/20 06:10:49;;;;;;;16.73;11.40;;;24.30;73.90;;;;;;4808619;29;20506;-82
2023/06/20 06:13:15;;;;;;;14.63;10.97;;;24.30;73.60;;;;;;4808807;29;20027;-82
2023/06/20 06:15:41;;;;;;;30.07;10.63;;;24.40;73.20;;;;;;4810328;29;20034;-81
2023/06/20 06:18:08;;;;;;;16.07;11.50;;;24.40;73.40;;;;;;4823796;29;20490;-81
2023/06/20 06:20:34;;;;;;;16.65;12.02;;;24.50;72.90;;;;;;4825115;29;20026;-81
2023/06/20 06:23:00;;;;;;;14.87;9.43;;;24.50;73.30;;;;;;4808649;29;20038;-81
2023/06/20 06:25:26;;;;;;;14.13;9.20;;;24.50;72.80;;;;;;4824635;29;20790;-82
2023/06/20 06:27:52;;;;;;;13.13;10.00;;;24.60;72.40;;;;;;4808742;29;20075;-81
2023/06/20 06:30:18;;;;;;;11.52;9.40;;;24.70;71.60;;;;;;4808724;29;20038;-82
2023/06/20 06:32:47;;;;;;;18.90;10.20;;;24.70;71.80;;;;;;4824757;29;20030;-82
2023/06/20 06:35:15;;;;;;;14.20;9.07;;;24.70;70.70;;;;;;4792206;29;20039;-81
2023/06/20 06:37:41;;;;;;;13.73;8.30;;;24.80;70.10;;;;;;4809056;29;20406;-82
2023/06/20 06:40:09;;;;;;;13.02;8.93;;;24.80;70.30;;;;;;4823490;29;20034;-83
2023/06/20 06:42:35;;;;;;;12.43;8.55;;;24.80;70.20;;;;;;4824338;29;20049;-81
2023/06/20 06:45:02;;;;;;;14.85;8.27;;;24.90;68.90;;;;;;4807883;29;20038;-82
2023/06/20 06:47:28;;;;;;;16.63;8.82;;;24.90;69.30;;;;;;4808022;29;20034;-84
2023/06/20 06:49:53;;;;;;;11.67;8.40;;;25.00;69.30;;;;;;4808200;29;20083;-82
2023/06/20 06:52:19;;;;;;;9.63;7.53;;;25.00;69.40;;;;;;4823719;29;20037;-80
2023/06/20 06:54:45;;;;;;;9.47;7.87;;;25.10;68.00;;;;;;4808919;29;20044;-80
2023/06/20 06:57:11;;;;;;;13.40;7.90;;;25.10;67.40;;;;;;4824517;29;20635;-81
2023/06/20 06:59:37;;;;;;;11.07;7.77;;;25.20;66.60;;;;;;4808182;29;20038;-80
2023/06/20 07:02:05;;;;;;;12.40;7.93;;;25.20;65.50;;;;;;4824381;29;20073;-82
2023/06/20 07:04:32;;;;;;;14.43;7.72;;;25.20;66.10;;;;;;4808271;29;20049;-83
2023/06/20 07:06:57;;;;;;;;;;;25.40;65.60;;;;;;4808025;29;20062;-82
2023/06/20 07:09:23;;;;;;;12.30;7.50;;;25.40;65.90;;;;;;4808030;29;20717;-83
2023/06/20 07:11:49;;;;;;;10.77;7.67;;;25.50;65.70;;;;;;4824156;29;20038;-82
2023/06/20 07:14:15;;;;;;;15.50;7.77;;;25.60;65.70;;;;;;4823510;29;20030;-82
2023/06/20 07:16:41;;;;;;;9.47;7.17;;;25.70;64.00;;;;;;4807845;29;20562;-82
2023/06/20 07:19:07;;;;;;;9.48;6.85;;;25.80;64.70;;;;;;4824274;29;20557;-82
2023/06/20 07:21:33;;;;;;;16.77;6.40;;;25.90;64.60;;;;;;4822849;29;20129;-82
2023/06/20 07:23:58;;;;;;;13.57;8.63;;;26.00;63.60;;;;;;4823965;29;20057;-82
2023/06/20 07:26:24;;;;;;;11.33;6.77;;;26.00;63.60;;;;;;4807604;29;20042;-82
2023/06/20 07:28:50;;;;;;;10.30;7.13;;;26.20;63.60;;;;;;4823838;29;20034;-82
2023/06/20 07:31:19;;;;;;;10.20;6.90;;;26.20;62.50;;;;;;4824244;29;20026;-83
2023/06/20 07:33:46;;;;;;;8.57;6.20;;;26.30;62.40;;;;;;4824051;29;20039;-82
2023/06/20 07:36:12;;;;;;;14.60;5.78;;;26.40;62.70;;;;;;4807603;29;20398;-82
2023/06/20 07:38:39;;;;;;;27.42;6.78;;;26.40;62.10;;;;;;4807464;29;20114;-83
2023/06/20 07:41:05;;;;;;;10.55;5.43;;;26.50;61.80;;;;;;4823902;29;20030;-82
2023/06/20 07:43:31;;;;;;;9.32;5.10;;;26.70;62.20;;;;;;4807591;29;20454;-82
2023/06/20 07:45:56;;;;;;;9.97;4.87;;;26.70;60.70;;;;;;4822632;29;20067;-82
2023/06/20 07:48:29;;;;;;;9.17;5.53;;;26.80;60.70;;;;;;4806980;29;20065;-83
2023/06/20 07:50:56;;;;;;;7.65;4.95;;;26.80;60.30;;;;;;4824138;29;20060;-83
2023/06/20 07:53:22;;;;;;;12.63;6.20;;;26.90;59.60;;;;;;4807122;29;20464;-82
2023/06/20 07:55:49;;;;;;;8.98;5.15;;;26.90;58.90;;;;;;4823339;29;20106;-82
2023/06/20 07:58:15;;;;;;;6.75;3.95;;;26.90;59.20;;;;;;4823582;29;20030;-82
2023/06/20 08:00:41;;;;;;;7.73;5.07;;;27.10;60.30;;;;;;4822786;29;20034;-82
2023/06/20 08:03:07;;;;;;;8.43;4.80;;;27.10;58.30;;;;;;4807290;29;20061;-81
2023/06/20 08:05:33;;;;;;;13.40;5.00;;;27.10;57.70;;;;;;4823341;29;20498;-82
2023/06/20 08:07:59;;;;;;;7.87;4.73;;;27.20;57.40;;;;;;4823752;29;20038;-82
2023/06/20 08:10:24;;;;;;;9.57;4.10;;;27.20;57.50;;;;;;4823862;29;20135;-83
2023/06/20 08:12:50;;;;;;;7.27;4.67;;;27.30;57.40;;;;;;4822261;29;20083;-83
2023/06/20 08:15:16;;;;;;;16.30;4.23;;;27.30;56.50;;;;;;4823990;29;20064;-83
2023/06/20 08:17:42;;;;;;;10.40;4.32;;;27.40;57.10;;;;;;4822535;29;20521;-83
2023/06/20 08:20:09;;;;;;;11.13;4.63;;;27.50;56.60;;;;;;4823121;29;20065;-82
2023/06/20 08:22:35;;;;;;;8.90;4.00;;;27.60;56.10;;;;;;4806386;29;20504;-83
2023/06/20 08:25:02;;;;;;;7.13;4.05;;;27.60;55.70;;;;;;4822634;29;20287;-83
2023/06/20 08:27:28;;;;;;;10.70;4.03;;;27.70;56.00;;;;;;4806909;29;20073;-82
2023/06/20 08:29:53;;;;;;;8.97;3.80;;;27.90;54.60;;;;;;4823329;29;20106;-82
2023/06/20 08:32:19;;;;;;;6.30;4.43;;;27.80;53.40;;;;;;4829603;29;20030;-83
2023/06/20 08:34:49;;;;;;;6.18;3.80;;;27.90;53.60;;;;;;4811927;29;20070;-82
2023/06/20 08:37:18;;;;;;;4.80;3.47;;;28.00;53.50;;;;;;4812298;29;20038;-82
2023/06/20 08:39:44;;;;;;;4.35;3.50;;;28.10;52.60;;;;;;4830646;29;20470;-82
2023/06/20 08:42:13;;;;;;;5.75;3.63;;;28.10;52.30;;;;;;4811539;29;20537;-83
2023/06/20 08:44:39;;;;;;;6.65;3.40;;;28.20;52.40;;;;;;4831297;29;20069;-82
2023/06/20 08:47:05;;;;;;;8.67;3.93;;;28.20;53.40;;;;;;4827751;29;20405;-82
2023/06/20 08:49:31;;;;;;;4.72;3.75;;;28.30;53.20;;;;;;4824494;29;20291;-83
2023/06/20 08:52:02;;;;;;;13.13;3.90;;;28.30;52.60;;;;;;4825394;29;20030;-83
2023/06/20 08:54:36;;;;;;;6.70;3.65;;;28.40;52.50;;;;;;4826497;29;20102;-82
2023/06/20 08:57:02;;;;;;;6.13;4.25;;;28.60;52.00;;;;;;4808685;29;20065;-82
2023/06/20 08:59:28;;;;;;;5.70;3.83;;;28.60;51.90;;;;;;4809268;29;20097;-83
2023/06/20 09:01:54;;;;;;;9.70;3.93;;;28.60;52.30;;;;;;4810546;29;20523;-83
2023/06/20 09:04:20;;;;;;;6.27;3.83;;;28.60;51.50;;;;;;4826349;29;20075;-83
2023/06/20 09:06:49;;;;;;;5.03;4.50;;;28.80;51.40;;;;;;4810820;29;20031;-83
2023/06/20 09:09:16;;;;;;;5.80;3.47;;;28.80;51.80;;;;;;4810572;29;20065;-83
2023/06/20 09:11:56;;;;;;;5.97;4.03;;;28.90;51.90;;;;;;4826519;29;20037;-82
2023/06/20 09:14:29;;;;;;;8.20;3.05;;;29.00;50.20;;;;;;4826276;29;20042;-84
2023/06/20 09:16:56;;;;;;;6.15;4.53;;;29.00;49.90;;;;;;4810330;29;20121;-83
2023/06/20 09:19:22;;;;;;;4.85;3.50;;;29.00;50.80;;;;;;4811225;29;20057;-82
2023/06/20 09:21:49;;;;;;;9.45;4.20;;;29.10;50.50;;;;;;4810761;29;20039;-82
2023/06/20 09:24:21;;;;;;;11.00;4.10;;;29.00;49.40;;;;;;4825786;29;20041;-83
2023/06/20 09:26:47;;;;;;;9.57;3.92;;;29.10;50.20;;;;;;4811499;29;20030;-82
2023/06/20 09:29:16;;;;;;;5.05;3.63;;;29.10;49.60;;;;;;4826393;29;20041;-83
2023/06/20 09:31:48;;;;;;;6.15;3.40;;;29.20;49.10;;;;;;4810501;29;20034;-83
2023/06/20 09:34:21;;;;;;;7.40;4.05;;;29.20;48.90;;;;;;4810660;29;20129;-82
2023/06/20 09:36:47;;;;;;;5.13;3.47;;;29.40;49.80;;;;;;4825812;29;20042;-83
2023/06/20 09:39:17;;;;;;;5.32;3.42;;;29.40;50.60;;;;;;4825980;29;20030;-83
2023/06/20 09:41:53;;;;;;;5.40;3.70;;;29.50;48.50;;;;;;4827552;29;20042;-82
2023/06/20 09:44:20;;;;;;;9.73;4.60;;;29.60;48.60;;;;;;4814187;29;20497;-82
2023/06/20 09:46:46;;;;;;;6.78;3.65;;;29.50;48.30;;;;;;4812398;29;20065;-82
2023/06/20 09:49:14;;;;;;;5.03;4.40;;;29.40;48.10;;;;;;4811504;29;20034;-82
2023/06/20 09:51:54;;;;;;;4.95;3.58;;;29.30;49.40;;;;;;4813003;29;20049;-83
2023/06/20 09:54:35;;;;;;;7.43;3.78;;;29.20;48.70;;;;;;4826632;29;20091;-82
2023/06/20 09:57:06;;;;;;;4.68;3.63;;;29.20;49.30;;;;;;4810563;29;20121;-83
2023/06/20 09:59:34;;;;;;;6.20;4.03;;;29.30;49.70;;;;;;4809344;29;20035;-82
2023/06/20 10:02:02;;;;;;;5.43;3.15;;;29.50;49.20;;;;;;4825146;29;20030;-82
2023/06/20 10:04:30;;;;;;;6.65;4.07;;;29.70;49.70;;;;;;4809029;29;20562;-82
2023/06/20 10:06:56;;;;;;;5.32;3.70;;;29.80;49.20;;;;;;4810654;29;20030;-84
2023/06/20 10:09:24;;;;;;;6.53;3.63;;;29.80;49.20;;;;;;4809539;29;20034;-82
2023/06/20 10:11:50;;;;;;;8.52;3.88;;;29.80;49.30;;;;;;4810085;29;20034;-83
2023/06/20 10:14:17;;;;;;;6.82;3.58;;;29.90;48.70;;;;;;4822419;29;20121;-84
2023/06/20 10:16:51;;;;;;;5.60;3.90;;;30.00;49.00;;;;;;4797038;29;20038;-83
2023/06/20 10:19:19;;;;;;;6.03;4.10;;;30.00;50.60;;;;;;4808319;29;20090;-86
2023/06/20 10:22:00;;;;;;;4.90;3.78;;;29.90;48.70;;;;;;4808339;29;20038;-86
2023/06/20 10:24:28;;;;;;;5.53;3.63;;;30.00;49.30;;;;;;4808353;29;20026;-86
2023/06/20 10:26:59;;;;;;;4.30;3.10;;;30.00;47.80;;;;;;4824537;29;20034;-86
2023/06/20 10:29:25;;;;;;;4.75;3.80;;;30.10;47.80;;;;;;4815318;29;20034;-85
2023/06/20 10:31:56;;;;;;;4.97;4.03;;;30.30;47.60;;;;;;4809460;29;20057;-86
2023/06/20 10:34:39;;;;;;;7.55;3.60;;;30.50;48.00;;;;;;4809397;29;20574;-85
2023/06/20 10:37:10;;;;;;;4.95;3.67;;;30.50;47.60;;;;;;4790995;29;20031;-86
2023/06/20 10:39:35;;;;;;;7.38;3.63;;;30.60;46.90;;;;;;4792118;29;20034;-86
2023/06/20 10:42:08;;;;;;;4.85;3.22;;;30.70;47.30;;;;;;4790228;29;20041;-86
2023/06/20 10:44:34;;;;;;;4.85;4.07;;;30.70;48.20;;;;;;4805278;29;20402;-86
2023/06/20 10:47:00;;;;;;;9.25;4.70;;;30.60;48.00;;;;;;4798489;29;20034;-86
2023/06/20 10:49:25;;;;;;;8.48;4.00;;;30.60;48.10;;;;;;4807905;29;20094;-86
2023/06/20 10:51:53;;;;;;;7.35;4.38;;;30.80;49.90;;;;;;4808177;29;20040;-85
2023/06/20 10:54:20;;;;;;;6.18;3.63;;;30.90;49.00;;;;;;4822216;29;20066;-86
2023/06/20 10:56:47;;;;;;;3.50;3.13;;;31.00;47.30;;;;;;4817348;29;20675;-86
2023/06/20 10:59:15;;;;;;;6.15;3.67;;;31.30;47.70;;;;;;4806353;29;20034;-86
2023/06/20 11:01:41;;;;;;;4.68;3.53;;;31.30;46.50;;;;;;4803159;29;20038;-87
2023/06/20 11:04:08;;;;;;;6.07;3.38;;;31.40;47.30;;;;;;4796372;29;20030;-86
2023/06/20 11:06:34;;;;;;;8.23;5.13;;;31.60;46.00;;;;;;4808355;29;20125;-85
2023/06/20 11:09:01;;;;;;;5.75;4.28;;;31.70;46.20;;;;;;4808529;29;20105;-85
2023/06/20 11:11:31;;;;;;;6.30;3.42;;;31.70;46.10;;;;;;4808454;29;20395;-86
2023/06/20 11:14:15;;;;;;;5.25;3.65;;;31.90;46.20;;;;;;4792098;29;20080;-84
2023/06/20 11:16:42;;;;;;;9.65;4.30;;;32.00;45.10;;;;;;4805971;29;20034;-84
2023/06/20 11:19:09;;;;;;;5.50;3.72;;;32.00;45.10;;;;;;4790102;29;20035;-83
2023/06/20 11:21:35;;;;;;;6.13;3.78;;;32.10;45.70;;;;;;4804675;29;20114;-83
2023/06/20 11:24:03;;;;;;;5.93;4.25;;;32.10;44.70;;;;;;4810342;29;20023;-84
2023/06/20 11:26:30;;;;;;;7.72;3.63;;;32.00;44.80;;;;;;4800705;29;20077;-84
2023/06/20 11:29:00;;;;;;;9.23;4.18;;;32.00;45.00;;;;;;4792604;29;20026;-83
2023/06/20 11:31:27;;;;;;;6.40;3.70;;;32.00;45.20;;;;;;4807618;29;20087;-82
2023/06/20 11:34:06;;;;;;;4.15;3.72;;;32.10;44.40;;;;;;4807197;29;20038;-83
2023/06/20 11:36:36;;;;;;;4.60;3.58;;;32.10;44.80;;;;;;4807400;29;20099;-83
2023/06/20 11:39:07;;;;;;;3.70;3.30;;;32.30;46.20;;;;;;4814382;29;20031;-85
2023/06/20 11:41:33;;;;;;;3.60;3.08;;;32.50;45.40;;;;;;4811870;29;20030;-84
2023/06/20 11:43:59;;;;;;;7.47;3.95;;;32.60;44.30;;;;;;4806531;29;20038;-83
2023/06/20 11:46:26;;;;;;;;;;;32.60;43.50;;;;;;4806527;29;20033;-83
2023/06/20 11:48:54;;;;;;;4.97;3.92;;;32.60;43.60;;;;;;4808028;29;19912;-83
2023/06/20 11:51:21;;;;;;;7.50;3.90;;;32.70;43.80;;;;;;4798965;29;20034;-83
2023/06/20 11:53:47;;;;;;;12.82;4.50;;;32.90;44.90;;;;;;4803036;29;20414;-83
2023/06/20 11:56:14;;;;;;;5.85;3.47;;;32.90;44.80;;;;;;4821779;29;20494;-83
2023/06/20 11:58:49;;;;;;;5.68;3.88;;;33.00;44.10;;;;;;4781839;29;20133;-83
2023/06/20 12:01:23;;;;;;;6.93;3.40;;;33.00;43.20;;;;;;4814441;29;20383;-83
2023/06/20 12:04:12;;;;;;;6.38;3.72;;;33.00;43.90;;;;;;4823710;29;20042;-82
2023/06/20 12:06:44;;;;;;;7.63;3.55;;;33.10;42.40;;;;;;4807332;29;20038;-83
2023/06/20 12:09:12;;;;;;;6.53;3.70;;;33.20;42.80;;;;;;4797859;29;20528;-83
2023/06/20 12:11:54;;;;;;;10.98;4.75;;;33.30;43.10;;;;;;4823354;29;20026;-83
2023/06/20 12:14:23;;;;;;;5.82;4.53;;;33.40;43.00;;;;;;4820435;29;20435;-83
2023/06/20 12:16:49;;;;;;;7.70;3.80;;;33.20;41.20;;;;;;4779688;29;20061;-83
2023/06/20 12:19:17;;;;;;;4.72;3.70;;;33.30;42.70;;;;;;4823500;29;20037;-83
2023/06/20 12:21:43;;;;;;;3.83;2.92;;;33.20;42.20;;;;;;4823647;29;20038;-83
2023/06/20 12:24:11;;;;;;;4.38;3.63;;;33.40;42.30;;;;;;4807836;29;20034;-83
2023/06/20 12:26:37;;;;;;;5.53;3.45;;;33.60;43.00;;;;;;4823380;29;20062;-84
2023/06/20 12:29:03;;;;;;;;;;;33.60;42.80;;;;;;4807420;29;20054;-83
2023/06/20 12:31:30;;;;;;;10.00;3.72;;;33.60;42.50;;;;;;4806818;29;19920;-84
2023/06/20 12:33:56;;;;;;;8.38;3.95;;;33.60;42.70;;;;;;4807804;29;20117;-83
2023/06/20 12:36:22;;;;;;;5.97;3.22;;;33.70;42.30;;;;;;4795645;29;20565;-83
2023/06/20 12:38:48;;;;;;;3.78;3.38;;;33.90;41.80;;;;;;4827046;29;20031;-83
2023/06/20 12:41:13;;;;;;;6.80;3.63;;;34.10;42.10;;;;;;4801972;29;20145;-83
2023/06/20 12:43:40;;;;;;;6.43;3.58;;;34.20;41.90;;;;;;4804929;29;20498;-83
2023/06/20 12:46:05;;;;;;;;;;;34.30;41.20;;;;;;4796215;29;20489;-84
2023/06/20 12:48:31;;;;;;;9.05;3.72;;;34.40;43.30;;;;;;4808973;29;20054;-83
2023/06/20 12:50:58;;;;;;;4.50;3.65;;;34.60;41.40;;;;;;4799058;29;20444;-83
2023/06/20 12:53:26;;;;;;;6.72;4.15;;;34.80;41.00;;;;;;4811268;29;20045;-83
2023/06/20 12:55:53;;;;;;;6.05;3.83;;;35.00;40.40;;;;;;4820088;29;20042;-83
2023/06/20 12:58:18;;;;;;;6.43;3.22;;;35.00;40.30;;;;;;4827495;29;20502;-83
2023/06/20 13:00:44;;;;;;;6.10;3.45;;;35.00;40.10;;;;;;4806985;29;20046;-83
2023/06/20 13:03:11;;;;;;;6.25;3.53;;;35.10;40.80;;;;;;4812454;29;20059;-83
2023/06/20 13:05:37;;;;;;;;;;;35.00;39.90;;;;;;4834384;29;20034;-83
2023/06/20 13:08:08;;;;;;;5.40;3.15;;;35.10;40.50;;;;;;4827510;29;19947;-84
2023/06/20 13:10:35;;;;;;;5.70;3.65;;;35.30;39.90;;;;;;4846383;29;20081;-83
2023/06/20 13:13:04;;;;;;;3.45;3.05;;;35.40;39.70;;;;;;4814765;29;20030;-83
2023/06/20 13:15:32;;;;;;;8.25;3.97;;;35.60;39.80;;;;;;4822653;29;20031;-83
2023/06/20 13:18:04;;;;;;;6.60;3.22;;;35.80;39.90;;;;;;4811349;29;20038;-83
2023/06/20 13:20:31;;;;;;;5.13;3.53;;;36.00;39.50;;;;;;4830191;29;20035;-83
2023/06/20 13:22:57;;;;;;;7.60;3.80;;;36.30;38.40;;;;;;4813549;29;20072;-83
2023/06/20 13:25:23;;;;;;;;;;;36.80;37.70;;;;;;4814282;29;20031;-83
2023/06/20 13:27:50;;;;;;;4.47;3.50;;;37.10;37.30;;;;;;4822137;29;19916;-84
2023/06/20 13:30:19;;;;;;;5.78;4.13;;;37.50;37.30;;;;;;4810316;29;20520;-83
2023/06/20 13:32:47;;;;;;;5.18;3.75;;;37.90;36.90;;;;;;4826506;29;20026;-83
2023/06/20 13:35:14;;;;;;;6.60;3.45;;;38.00;36.10;;;;;;4826860;29;20039;-83
2023/06/20 13:37:41;;;;;;;4.78;3.92;;;38.00;36.70;;;;;;4794467;29;20481;-83
2023/06/20 13:40:09;;;;;;;4.72;3.47;;;37.80;36.20;;;;;;4821147;29;20054;-83
2023/06/20 13:42:41;;;;;;;7.25;3.80;;;37.60;36.30;;;;;;4793636;29;20121;-82
2023/06/20 13:45:17;;;;;;;9.30;4.18;;;37.50;36.30;;;;;;4825014;29;20042;-86
2023/06/20 13:47:45;;;;;;;10.85;3.60;;;37.70;36.50;;;;;;4815477;29;20030;-82
2023/06/20 13:50:12;;;;;;;5.43;3.70;;;37.30;36.00;;;;;;4815206;29;20425;-82
2023/06/20 13:52:38;;;;;;;6.85;4.35;;;37.50;36.20;;;;;;4813355;29;20023;-84
2023/06/20 13:55:05;;;;;;;5.32;3.55;;;37.50;34.90;;;;;;4809258;29;20037;-83
2023/06/20 13:57:31;;;;;;;7.47;3.88;;;37.80;35.40;;;;;;4809157;29;20034;-83
2023/06/20 13:59:59;;;;;;;10.43;3.92;;;37.60;36.00;;;;;;4810058;29;20034;-82
2023/06/20 14:02:26;;;;;;;6.38;4.40;;;37.80;36.60;;;;;;4793840;29;20027;-82
2023/06/20 14:04:53;;;;;;;4.85;4.22;;;38.50;35.80;;;;;;4807267;29;20038;-83
2023/06/20 14:07:20;;;;;;;4.05;3.65;;;38.90;34.80;;;;;;4792643;29;20118;-83
2023/06/20 14:09:46;;;;;;;6.55;3.75;;;39.10;35.10;;;;;;4803692;29;20094;-82
2023/06/20 14:12:11;;;;;;;;;;;39.30;34.00;;;;;;4824452;29;20034;-83
2023/06/20 14:14:37;;;;;;;7.60;3.83;;;38.70;33.80;;;;;;4809973;29;20360;-82
2023/06/20 14:17:03;;;;;;;5.25;3.15;;;38.30;34.70;;;;;;4826144;29;20102;-81
2023/06/20 14:19:32;;;;;;;4.63;3.45;;;37.70;34.20;;;;;;4809923;29;20095;-82
2023/06/20 14:21:58;;;;;;;5.78;3.53;;;37.50;36.10;;;;;;4809869;29;20034;-82
2023/06/20 14:24:24;;;;;;;6.57;3.40;;;37.50;35.70;;;;;;4825713;29;20045;-82
2023/06/20 14:26:54;;;;;;;;;;;37.50;35.50;;;;;;4825998;29;20102;-86
2023/06/20 14:29:21;;;;;;;4.82;3.90;;;37.50;35.90;;;;;;4825033;29;19964;-85
2023/06/20 14:31:46;;;;;;;;;;;37.00;35.90;;;;;;4808133;29;20034;-86
2023/06/20 14:34:12;;;;;;;6.03;3.50;;;36.70;37.90;;;;;;4824759;29;19917;-83
2023/06/20 14:36:38;;;;;;;5.28;3.70;;;36.60;36.80;;;;;;4808697;29;20179;-83
2023/06/20 14:39:04;;;;;;;6.45;3.35;;;36.60;38.20;;;;;;4808886;29;20034;-82
2023/06/20 14:41:30;;;;;;;;;;;36.50;37.90;;;;;;4793795;29;20413;-81
2023/06/20 14:43:56;;;;;;;6.55;3.65;;;36.10;37.50;;;;;;4808502;29;19999;-82
2023/06/20 14:46:21;;;;;;;4.95;3.75;;;35.70;37.90;;;;;;4808413;29;20475;-83
2023/06/20 14:48:49;;;;;;;6.28;3.30;;;35.80;38.30;;;;;;4808481;29;20054;-83
2023/06/20 14:51:16;;;;;;;5.68;3.63;;;35.90;38.40;;;;;;4808371;29;20049;-82
2023/06/20 14:53:42;;;;;;;8.75;4.28;;;35.90;38.20;;;;;;4824637;29;20039;-81
2023/06/20 14:56:08;;;;;;;;;;;35.90;38.60;;;;;;4824499;29;20114;-82
2023/06/20 14:58:34;;;;;;;6.40;3.25;;;35.70;38.00;;;;;;4825497;29;20003;-81
2023/06/20 15:01:00;;;;;;;4.85;3.70;;;35.60;38.30;;;;;;4824955;29;20038;-82
2023/06/20 15:03:26;;;;;;;;;;;35.40;39.30;;;;;;4794616;29;20065;-81
2023/06/20 15:05:52;;;;;;;4.72;4.03;;;34.90;40.60;;;;;;4824848;29;19908;-82
2023/06/20 15:08:18;;;;;;;4.53;3.33;;;34.50;40.80;;;;;;4825656;29;20042;-83
2023/06/20 15:10:44;;;;;;;5.45;3.72;;;34.20;40.90;;;;;;4826028;29;20030;-82
2023/06/20 15:13:10;;;;;;;10.95;3.70;;;33.70;41.20;;;;;;4810506;29;20026;-82
2023/06/20 15:15:36;;;;;;;9.85;3.05;;;33.70;41.90;;;;;;4828586;29;20034;-82
2023/06/20 15:18:02;;;;;;;10.15;4.85;;;33.70;40.90;;;;;;4827916;29;20405;-82
2023/06/20 15:20:28;;;;;;;7.85;3.90;;;33.70;41.60;;;;;;4824833;29;20503;-82
2023/06/20 15:22:56;;;;;;;5.47;3.63;;;33.70;41.50;;;;;;4824201;29;20486;-82
2023/06/20 15:25:23;;;;;;;6.63;4.35;;;33.40;42.00;;;;;;4807794;29;20090;-81
2023/06/20 15:27:49;;;;;;;4.80;3.95;;;33.50;41.30;;;;;;4808292;29;20045;-81
2023/06/20 15:30:15;;;;;;;7.55;4.45;;;33.50;41.80;;;;;;4824732;29;20030;-81
2023/06/20 15:32:44;;;;;;;8.10;4.05;;;33.20;41.50;;;;;;4823186;29;20107;-82
2023/06/20 15:35:13;;;;;;;8.18;3.72;;;33.20;41.60;;;;;;4807195;29;20045;-82
2023/06/20 15:37:41;;;;;;;6.13;3.30;;;33.20;41.80;;;;;;4824609;29;20451;-81
2023/06/20 15:40:07;;;;;;;4.15;3.33;;;33.50;41.70;;;;;;4807716;29;20039;-81
2023/06/20 15:42:33;;;;;;;;;;;33.60;42.10;;;;;;4808540;29;20061;-82
2023/06/20 15:45:00;;;;;;;4.57;3.50;;;33.60;41.40;;;;;;4808281;29;19917;-81
2023/06/20 15:47:26;;;;;;;5.28;3.67;;;33.70;41.80;;;;;;4828328;29;20031;-81
2023/06/20 15:49:51;;;;;;;15.07;13.25;;;33.60;41.60;;;;;;4826124;29;20099;-82
2023/06/20 15:52:17;;;;;;;6.72;4.13;;;33.60;40.90;;;;;;4825101;29;20034;-81
2023/06/20 15:54:43;;;;;;;5.50;3.65;;;33.60;41.80;;;;;;4808890;29;20030;-81
2023/06/20 15:57:10;;;;;;;4.90;3.63;;;33.60;41.80;;;;;;4826957;29;20441;-81
2023/06/20 15:59:40;;;;;;;6.82;3.90;;;33.50;41.50;;;;;;4816459;29;20034;-81
2023/06/20 16:02:10;;;;;;;9.30;4.47;;;33.60;41.20;;;;;;4832985;29;20037;-81
2023/06/20 16:04:37;;;;;;;4.53;3.67;;;33.70;41.80;;;;;;4814526;29;20038;-81
2023/06/20 16:07:03;;;;;;;7.60;3.55;;;33.80;42.30;;;;;;4813325;29;20512;-82
2023/06/20 16:09:30;;;;;;;21.73;3.97;;;33.70;41.70;;;;;;4828897;29;20039;-82
2023/06/20 16:11:55;;;;;;;5.28;3.38;;;33.70;42.20;;;;;;4831658;29;20459;-82
2023/06/20 16:14:21;;;;;;;3.63;3.33;;;33.60;42.00;;;;;;4829676;29;20490;-81
2023/06/20 16:16:48;;;;;;;5.00;3.35;;;33.40;41.60;;;;;;4814020;29;20059;-81
2023/06/20 16:19:14;;;;;;;6.60;3.65;;;33.60;42.70;;;;;;4812097;29;20038;-82
2023/06/20 16:21:40;;;;;;;10.63;3.38;;;33.70;42.10;;;;;;4828750;29;20052;-81
2023/06/20 16:24:06;;;;;;;5.28;3.40;;;33.70;41.70;;;;;;4826075;29;20439;-81
2023/06/20 16:26:32;;;;;;;5.40;3.20;;;33.60;41.30;;;;;;4826410;29;20026;-82
2023/06/20 16:28:58;;;;;;;8.90;3.50;;;33.60;41.60;;;;;;4826182;29;20061;-81
2023/06/20 16:31:25;;;;;;;7.40;3.65;;;33.50;41.10;;;;;;4826073;29;20066;-81
2023/06/20 16:33:51;;;;;;;;;;;33.60;41.20;;;;;;4827273;29;20053;-82
2023/06/20 16:36:17;;;;;;;11.05;3.80;;;33.60;41.50;;;;;;4807995;29;20365;-84
2023/06/20 16:38:43;;;;;;;4.70;3.60;;;33.30;40.10;;;;;;4809219;29;20043;-83
2023/06/20 16:41:10;;;;;;;6.50;3.75;;;33.50;40.10;;;;;;4826358;29;20109;-85
2023/06/20 16:43:36;;;;;;;5.70;2.80;;;33.50;40.00;;;;;;4825606;29;20109;-83
2023/06/20 16:46:02;;;;;;;10.82;3.35;;;33.50;39.90;;;;;;4824711;29;20121;-83
2023/06/20 16:48:27;;;;;;;3.45;2.83;;;33.30;40.10;;;;;;4833311;29;20034;-83
2023/06/20 16:50:53;;;;;;;4.05;3.20;;;33.30;39.60;;;;;;4826796;29;20042;-83
2023/06/20 16:53:19;;;;;;;4.68;3.50;;;33.30;40.60;;;;;;4826169;29;20038;-83
2023/06/20 16:55:45;;;;;;;8.07;3.78;;;33.30;40.90;;;;;;4843298;29;20045;-83
2023/06/20 16:58:11;;;;;;;7.95;3.22;;;33.40;41.10;;;;;;4826855;29;20045;-82
2023/06/20 17:00:37;;;;;;;6.07;3.08;;;33.40;40.70;;;;;;4817107;29;20043;-85
2023/06/20 17:03:03;;;;;;;6.20;5.45;;;33.10;41.20;;;;;;4809126;29;20027;-83
2023/06/20 17:05:28;;;;;;;6.35;3.38;;;33.10;40.80;;;;;;4793278;29;20046;-82
2023/06/20 17:07:54;;;;;;;5.53;3.42;;;33.20;41.80;;;;;;4808631;29;20045;-84
2023/06/20 17:10:20;;;;;;;9.05;6.18;;;33.20;41.80;;;;;;4808986;29;20027;-83
2023/06/20 17:12:48;;;;;;;8.63;6.13;;;33.20;41.70;;;;;;4808628;29;20045;-84
2023/06/20 17:15:14;;;;;;;5.78;4.03;;;33.10;42.10;;;;;;4792441;29;20037;-84
2023/06/20 17:17:40;;;;;;;10.98;4.15;;;33.20;42.00;;;;;;4794635;29;20559;-84
2023/06/20 17:20:06;;;;;;;8.63;4.60;;;33.20;41.40;;;;;;4793427;29;20035;-85
2023/06/20 17:22:33;;;;;;;5.30;3.78;;;33.20;42.90;;;;;;4813359;29;20109;-83
2023/06/20 17:24:59;;;;;;;6.88;3.70;;;33.20;41.40;;;;;;4823947;29;20042;-83
2023/06/20 17:27:25;;;;;;;4.25;3.28;;;33.10;41.30;;;;;;4810046;29;20042;-83
2023/06/20 17:29:52;;;;;;;6.03;3.58;;;33.10;42.10;;;;;;4814243;29;20027;-84
2023/06/20 17:32:18;;;;;;;6.57;3.33;;;33.10;41.70;;;;;;4815001;29;20505;-82
2023/06/20 17:34:44;;;;;;;5.53;3.65;;;33.10;42.60;;;;;;4798290;29;20293;-82
2023/06/20 17:37:10;;;;;;;;;;;33.10;42.10;;;;;;4825466;29;20035;-85
2023/06/20 17:39:36;;;;;;;5.65;3.92;;;32.90;42.20;;;;;;4816188;29;19965;-86
2023/06/20 17:42:02;;;;;;;7.35;3.70;;;32.80;43.00;;;;;;4846568;29;20057;-86
2023/06/20 17:44:28;;;;;;;8.63;4.28;;;32.70;43.70;;;;;;4835250;29;20052;-86
2023/06/20 17:46:55;;;;;;;8.50;3.75;;;32.70;44.70;;;;;;4818920;29;20117;-84
2023/06/20 17:49:24;;;;;;;6.45;3.50;;;32.60;44.50;;;;;;4805360;29;20034;-85
2023/06/20 17:51:50;;;;;;;5.78;3.72;;;32.50;45.70;;;;;;4799154;29;20039;-85
2023/06/20 17:54:16;;;;;;;6.25;3.42;;;32.40;45.40;;;;;;4809641;29;20030;-85
2023/06/20 17:56:42;;;;;;;6.57;3.17;;;32.40;45.50;;;;;;4814577;29;20027;-85
2023/06/20 17:59:08;;;;;;;7.13;3.38;;;32.30;46.00;;;;;;4808996;29;20034;-85
2023/06/20 18:01:34;;;;;;;7.03;3.78;;;32.30;46.90;;;;;;4790107;29;20046;-83
2023/06/20 18:04:00;;;;;;;4.80;3.33;;;32.30;48.30;;;;;;4799917;29;20035;-84
2023/06/20 18:06:26;;;;;;;6.32;3.40;;;32.30;48.50;;;;;;4780725;29;20062;-82
2023/06/20 18:08:52;;;;;;;9.80;3.72;;;32.20;48.80;;;;;;4797378;29;20037;-82
2023/06/20 18:11:17;;;;;;;8.85;3.90;;;32.20;48.80;;;;;;4829291;29;20035;-84
2023/06/20 18:13:44;;;;;;;9.30;3.90;;;32.20;47.70;;;;;;4801515;29;20039;-83
2023/06/20 18:16:12;;;;;;;8.18;4.20;;;32.10;46.50;;;;;;4825057;29;20117;-83
2023/06/20 18:18:39;;;;;;;5.35;4.10;;;32.10;46.90;;;;;;4820668;29;20038;-84
2023/06/20 18:21:10;;;;;;;;;;;32.00;46.30;;;;;;4815505;29;20037;-82